sensor_id;sensor_type;location;lat;lon;timestamp;pressure;altitude;pressure_sealevel;temperature;humidity
43621;BME280;29213;50.770;7.298;2023-07-31T00:01:42;100498.56;;;16.01;59.79
43621;BME280;29213;50.770;7.298;2023-07-31T00:04:08;100565.22;;;16.39;59.51
43621;BME280;29213;50.770;7.298;2023-07-31T00:06:33;100540.81;;;16.34;60.16
43621;BME280;29213;50.770;7.298;2023-07-31T00:08:58;100543.69;;;16.33;60.43
43621;BME280;29213;50.770;7.298;2023-07-31T00:11:24;100511.63;;;16.18;60.29
43621;BME280;29213;50.770;7.298;2023-07-31T00:13:49;100534.78;;;16.32;60.01
43621;BME280;29213;50.770;7.298;2023-07-31T00:16:15;100500.47;;;16.14;60.17
43621;BME280;29213;50.770;7.298;2023-07-31T00:18:40;100489.06;;;16.05;59.99
43621;BME280;29213;50.770;7.298;2023-07-31T00:21:05;100551.16;;;16.44;59.80
43621;BME280;29213;50.770;7.298;2023-07-31T00:23:31;100539.34;;;16.45;60.21
43621;BME280;29213;50.770;7.298;2023-07-31T00:25:56;100509.97;;;16.23;60.17
43621;BME280;29213;50.770;7.298;2023-07-31T00:28:21;100449.94;;;15.89;60.52
43621;BME280;29213;50.770;7.298;2023-07-31T00:30:47;100512.44;;;16.18;60.65
43621;BME280;29213;50.770;7.298;2023-07-31T00:33:13;100543.28;;;16.42;60.83
43621;BME280;29213;50.770;7.298;2023-07-31T00:35:38;100492.38;;;16.07;60.16
43621;BME280;29213;50.770;7.298;2023-07-31T00:38:03;100510.59;;;16.25;60.66
43621;BME280;29213;50.770;7.298;2023-07-31T00:40:29;100490.09;;;16.11;60.68
43621;BME280;29213;50.770;7.298;2023-07-31T00:42:54;100525.09;;;16.38;60.68
43621;BME280;29213;50.770;7.298;2023-07-31T00:45:21;100503.56;;;16.18;60.39
43621;BME280;29213;50.770;7.298;2023-07-31T00:47:49;100456.16;;;15.89;60.53
43621;BME280;29213;50.770;7.298;2023-07-31T00:50:14;100499.41;;;16.08;60.45
43621;BME280;29213;50.770;7.298;2023-07-31T00:52:39;100546.63;;;16.45;61.06
43621;BME280;29213;50.770;7.298;2023-07-31T00:55:05;100488.03;;;16.06;61.07
43621;BME280;29213;50.770;7.298;2023-07-31T00:57:32;100499.84;;;16.19;60.90
43621;BME280;29213;50.770;7.298;2023-07-31T00:59:58;100499.22;;;16.16;60.84
43621;BME280;29213;50.770;7.298;2023-07-31T01:02:23;100492.78;;;16.11;60.94
43621;BME280;29213;50.770;7.298;2023-07-31T01:04:49;100482.03;;;16.04;60.45
43621;BME280;29213;50.770;7.298;2023-07-31T01:07:24;100428.81;;;15.72;60.77
43621;BME280;29213;50.770;7.298;2023-07-31T01:12:21;100491.13;;;16.10;60.28
43621;BME280;29213;50.770;7.298;2023-07-31T01:15:02;100543.72;;;16.39;60.67
43621;BME280;29213;50.770;7.298;2023-07-31T01:17:28;100483.25;;;16.01;61.08
43621;BME280;29213;50.770;7.298;2023-07-31T01:19:55;100546.63;;;16.45;61.13
43621;BME280;29213;50.770;7.298;2023-07-31T01:22:32;100479.97;;;16.06;61.18
43621;BME280;29213;50.770;7.298;2023-07-31T01:25:29;100539.56;;;16.43;61.48
43621;BME280;29213;50.770;7.298;2023-07-31T01:28:03;100505.03;;;16.27;61.73
43621;BME280;29213;50.770;7.298;2023-07-31T01:30:32;100541.66;;;16.48;61.57
43621;BME280;29213;50.770;7.298;2023-07-31T01:33:03;100535.03;;;16.51;61.52
43621;BME280;29213;50.770;7.298;2023-07-31T01:35:37;100520.97;;;16.42;61.89
43621;BME280;29213;50.770;7.298;2023-07-31T01:38:04;100461.78;;;16.01;62.15
43621;BME280;29213;50.770;7.298;2023-07-31T01:40:29;100510.41;;;16.27;61.94
43621;BME280;29213;50.770;7.298;2023-07-31T01:42:55;100485.56;;;16.11;61.64
43621;BME280;29213;50.770;7.298;2023-07-31T01:45:20;100546.84;;;16.50;62.21
43621;BME280;29213;50.770;7.298;2023-07-31T01:47:46;100537.09;;;16.49;62.78
43621;BME280;29213;50.770;7.298;2023-07-31T01:50:12;100452.63;;;15.89;63.01
43621;BME280;29213;50.770;7.298;2023-07-31T01:52:37;100456.38;;;15.95;63.47
43621;BME280;29213;50.770;7.298;2023-07-31T01:55:03;100528.00;;;16.43;63.34
43621;BME280;29213;50.770;7.298;2023-07-31T01:57:28;100483.50;;;16.13;63.83
43621;BME280;29213;50.770;7.298;2023-07-31T01:59:53;100490.34;;;16.23;64.21
43621;BME280;29213;50.770;7.298;2023-07-31T02:02:19;100503.16;;;16.27;64.22
43621;BME280;29213;50.770;7.298;2023-07-31T02:04:45;100478.34;;;16.05;64.31
43621;BME280;29213;50.770;7.298;2023-07-31T02:07:11;100402.00;;;15.66;64.15
43621;BME280;29213;50.770;7.298;2023-07-31T02:09:37;100468.00;;;16.09;64.76
43621;BME280;29213;50.770;7.298;2023-07-31T02:12:02;100513.72;;;16.29;64.87
43621;BME280;29213;50.770;7.298;2023-07-31T02:14:28;100435.25;;;15.78;65.10
43621;BME280;29213;50.770;7.298;2023-07-31T02:16:53;100492.41;;;16.14;65.18
43621;BME280;29213;50.770;7.298;2023-07-31T02:19:18;100515.34;;;16.30;65.19
43621;BME280;29213;50.770;7.298;2023-07-31T02:21:44;100432.78;;;15.76;65.44
43621;BME280;29213;50.770;7.298;2023-07-31T02:24:09;100479.13;;;16.06;65.71
43621;BME280;29213;50.770;7.298;2023-07-31T02:26:35;100422.03;;;15.76;65.58
43621;BME280;29213;50.770;7.298;2023-07-31T02:29:00;100435.25;;;15.85;65.50
43621;BME280;29213;50.770;7.298;2023-07-31T02:31:26;100445.81;;;15.86;66.07
43621;BME280;29213;50.770;7.298;2023-07-31T02:33:51;100432.34;;;15.73;66.07
43621;BME280;29213;50.770;7.298;2023-07-31T02:36:16;100415.59;;;15.64;65.92
43621;BME280;29213;50.770;7.298;2023-07-31T02:38:42;100433.16;;;15.73;65.81
43621;BME280;29213;50.770;7.298;2023-07-31T02:41:07;100448.06;;;15.83;65.94
43621;BME280;29213;50.770;7.298;2023-07-31T02:43:33;100499.00;;;16.11;66.14
43621;BME280;29213;50.770;7.298;2023-07-31T02:45:59;100433.16;;;15.73;66.19
43621;BME280;29213;50.770;7.298;2023-07-31T02:48:24;100427.19;;;15.71;65.98
43621;BME280;29213;50.770;7.298;2023-07-31T02:50:50;100486.59;;;16.10;65.77
43621;BME280;29213;50.770;7.298;2023-07-31T02:53:15;100407.13;;;15.60;66.07
43621;BME280;29213;50.770;7.298;2023-07-31T02:55:40;100452.03;;;15.94;65.89
43621;BME280;29213;50.770;7.298;2023-07-31T02:58:06;100441.88;;;15.89;65.90
43621;BME280;29213;50.770;7.298;2023-07-31T03:00:31;100426.16;;;15.72;66.01
43621;BME280;29213;50.770;7.298;2023-07-31T03:02:57;100428.84;;;15.79;65.88
43621;BME280;29213;50.770;7.298;2023-07-31T03:05:22;100417.91;;;15.74;66.07
43621;BME280;29213;50.770;7.298;2023-07-31T03:07:48;100427.22;;;15.78;66.28
43621;BME280;29213;50.770;7.298;2023-07-31T03:10:13;100359.78;;;15.39;65.93
43621;BME280;29213;50.770;7.298;2023-07-31T03:12:40;100460.53;;;16.04;65.93
43621;BME280;29213;50.770;7.298;2023-07-31T03:15:05;100409.81;;;15.67;66.10
43621;BME280;29213;50.770;7.298;2023-07-31T03:17:31;100437.34;;;15.89;66.33
43621;BME280;29213;50.770;7.298;2023-07-31T03:19:56;100442.91;;;15.88;66.22
43621;BME280;29213;50.770;7.298;2023-07-31T03:22:21;100410.03;;;15.66;66.40
43621;BME280;29213;50.770;7.298;2023-07-31T03:24:47;100396.78;;;15.57;66.53
43621;BME280;29213;50.770;7.298;2023-07-31T03:27:12;100421.84;;;15.78;66.25
43621;BME280;29213;50.770;7.298;2023-07-31T03:29:38;100417.91;;;15.74;66.40
43621;BME280;29213;50.770;7.298;2023-07-31T03:32:03;100437.97;;;15.92;66.54
43621;BME280;29213;50.770;7.298;2023-07-31T03:34:29;100403.63;;;15.67;66.24
43621;BME280;29213;50.770;7.298;2023-07-31T03:36:55;100454.13;;;15.98;66.33
43621;BME280;29213;50.770;7.298;2023-07-31T03:39:20;100443.59;;;15.97;66.33
43621;BME280;29213;50.770;7.298;2023-07-31T03:41:45;100439.88;;;15.98;65.78
43621;BME280;29213;50.770;7.298;2023-07-31T03:44:11;100438.81;;;15.99;65.82
43621;BME280;29213;50.770;7.298;2023-07-31T03:46:36;100372.44;;;15.59;65.89
43621;BME280;29213;50.770;7.298;2023-07-31T03:49:02;100397.25;;;15.81;65.96
43621;BME280;29213;50.770;7.298;2023-07-31T03:51:27;100436.97;;;15.99;65.86
43621;BME280;29213;50.770;7.298;2023-07-31T03:53:53;100424.78;;;15.97;65.56
43621;BME280;29213;50.770;7.298;2023-07-31T03:56:18;100405.72;;;15.78;65.68
43621;BME280;29213;50.770;7.298;2023-07-31T03:58:43;100422.53;;;16.00;65.75
43621;BME280;29213;50.770;7.298;2023-07-31T04:01:09;100371.81;;;15.63;65.46
43621;BME280;29213;50.770;7.298;2023-07-31T04:03:34;100402.25;;;15.91;65.47
43621;BME280;29213;50.770;7.298;2023-07-31T04:05:59;100416.53;;;15.98;65.48
43621;BME280;29213;50.770;7.298;2023-07-31T04:08:25;100419.03;;;16.00;65.75
43621;BME280;29213;50.770;7.298;2023-07-31T04:10:50;100398.50;;;15.85;65.61
43621;BME280;29213;50.770;7.298;2023-07-31T04:13:16;100421.28;;;16.03;65.74
43621;BME280;29213;50.770;7.298;2023-07-31T04:15:41;100362.53;;;15.66;65.50
43621;BME280;29213;50.770;7.298;2023-07-31T04:18:07;100397.88;;;15.90;65.11
43621;BME280;29213;50.770;7.298;2023-07-31T04:20:32;100356.56;;;15.64;65.10
43621;BME280;29213;50.770;7.298;2023-07-31T04:22:58;100373.09;;;15.74;64.94
43621;BME280;29213;50.770;7.298;2023-07-31T04:25:23;100397.88;;;15.90;64.85
43621;BME280;29213;50.770;7.298;2023-07-31T04:27:49;100380.34;;;15.81;65.05
43621;BME280;29213;50.770;7.298;2023-07-31T04:30:14;100422.34;;;16.09;65.05
43621;BME280;29213;50.770;7.298;2023-07-31T04:32:39;100405.34;;;15.95;64.75
43621;BME280;29213;50.770;7.298;2023-07-31T04:35:05;100386.91;;;15.85;65.03
43621;BME280;29213;50.770;7.298;2023-07-31T04:37:31;100398.94;;;15.96;65.16
43621;BME280;29213;50.770;7.298;2023-07-31T04:39:56;100417.56;;;16.11;65.09
43621;BME280;29213;50.770;7.298;2023-07-31T04:42:22;100397.72;;;15.98;65.35
43621;BME280;29213;50.770;7.298;2023-07-31T04:44:47;100385.09;;;15.92;65.34
43621;BME280;29213;50.770;7.298;2023-07-31T04:47:13;100420.88;;;16.13;65.06
43621;BME280;29213;50.770;7.298;2023-07-31T04:49:38;100420.06;;;16.12;65.20
43621;BME280;29213;50.770;7.298;2023-07-31T04:52:04;100397.09;;;16.03;65.63
43621;BME280;29213;50.770;7.298;2023-07-31T04:54:29;100416.34;;;16.13;65.84
43621;BME280;29213;50.770;7.298;2023-07-31T04:56:55;100392.56;;;15.97;65.89
43621;BME280;29213;50.770;7.298;2023-07-31T04:59:20;100378.28;;;15.89;65.90
43621;BME280;29213;50.770;7.298;2023-07-31T05:01:46;100401.25;;;16.06;65.97
43621;BME280;29213;50.770;7.298;2023-07-31T05:04:14;100392.97;;;16.00;65.80
43621;BME280;29213;50.770;7.298;2023-07-31T05:06:41;100345.81;;;15.71;65.58
43621;BME280;29213;50.770;7.298;2023-07-31T05:09:06;100414.50;;;16.14;66.21
43621;BME280;29213;50.770;7.298;2023-07-31T05:11:31;100354.94;;;15.83;66.02
43621;BME280;29213;50.770;7.298;2023-07-31T05:13:57;100364.66;;;15.91;65.99
43621;BME280;29213;50.770;7.298;2023-07-31T05:16:22;100388.47;;;16.08;65.72
43621;BME280;29213;50.770;7.298;2023-07-31T05:18:48;100361.31;;;15.89;65.64
43621;BME280;29213;50.770;7.298;2023-07-31T05:21:13;100358.63;;;15.89;65.56
43621;BME280;29213;50.770;7.298;2023-07-31T05:23:38;100388.22;;;16.09;65.68
43621;BME280;29213;50.770;7.298;2023-07-31T05:26:05;100342.75;;;15.94;65.53
43621;BME280;29213;50.770;7.298;2023-07-31T05:28:30;100345.28;;;16.02;65.16
43621;BME280;29213;50.770;7.298;2023-07-31T05:31:00;100360.53;;;16.15;65.04
43621;BME280;29213;50.770;7.298;2023-07-31T05:33:26;100385.13;;;16.26;65.02
43621;BME280;29213;50.770;7.298;2023-07-31T05:35:51;100346.94;;;16.10;65.10
43621;BME280;29213;50.770;7.298;2023-07-31T05:38:17;100361.19;;;16.24;64.85
43621;BME280;29213;50.770;7.298;2023-07-31T05:40:43;100375.22;;;16.33;64.94
43621;BME280;29213;50.770;7.298;2023-07-31T05:43:08;100341.13;;;16.13;64.88
43621;BME280;29213;50.770;7.298;2023-07-31T05:45:34;100352.69;;;16.21;65.08
43621;BME280;29213;50.770;7.298;2023-07-31T05:48:00;100377.47;;;16.36;64.88
43621;BME280;29213;50.770;7.298;2023-07-31T05:50:25;100332.22;;;16.20;64.72
43621;BME280;29213;50.770;7.298;2023-07-31T05:52:51;100363.44;;;16.41;65.22
43621;BME280;29213;50.770;7.298;2023-07-31T05:55:17;100313.03;;;16.16;64.88
43621;BME280;29213;50.770;7.298;2023-07-31T05:57:42;100309.50;;;16.15;65.06
43621;BME280;29213;50.770;7.298;2023-07-31T06:00:08;100323.13;;;16.27;65.00
43621;BME280;29213;50.770;7.298;2023-07-31T06:02:34;100329.53;;;16.40;64.88
43621;BME280;29213;50.770;7.298;2023-07-31T06:05:03;100324.78;;;16.35;64.67
43621;BME280;29213;50.770;7.298;2023-07-31T06:07:29;100328.28;;;16.42;64.75
43621;BME280;29213;50.770;7.298;2023-07-31T06:09:54;100324.78;;;16.42;64.75
43621;BME280;29213;50.770;7.298;2023-07-31T06:12:20;100342.75;;;16.55;64.90
43621;BME280;29213;50.770;7.298;2023-07-31T06:14:46;100340.25;;;16.53;64.63
43621;BME280;29213;50.770;7.298;2023-07-31T06:17:11;100338.38;;;16.54;64.51
43621;BME280;29213;50.770;7.298;2023-07-31T06:19:37;100329.31;;;16.55;64.64
43621;BME280;29213;50.770;7.298;2023-07-31T06:22:02;100280.56;;;16.18;64.63
43621;BME280;29213;50.770;7.298;2023-07-31T06:24:28;100312.78;;;16.38;64.91
43621;BME280;29213;50.770;7.298;2023-07-31T06:26:53;100350.38;;;16.58;64.47
43621;BME280;29213;50.770;7.298;2023-07-31T06:29:19;100323.31;;;16.46;64.22
43621;BME280;29213;50.770;7.298;2023-07-31T06:31:44;100321.44;;;16.53;65.27
43621;BME280;29213;50.770;7.298;2023-07-31T06:34:10;100310.91;;;16.45;64.94
43621;BME280;29213;50.770;7.298;2023-07-31T06:36:35;100263.41;;;16.12;64.88
43621;BME280;29213;50.770;7.298;2023-07-31T06:39:00;100261.78;;;16.11;65.18
43621;BME280;29213;50.770;7.298;2023-07-31T06:41:26;100336.94;;;16.51;65.44
43621;BME280;29213;50.770;7.298;2023-07-31T06:43:51;100347.88;;;16.63;65.14
43621;BME280;29213;50.770;7.298;2023-07-31T06:46:17;100317.97;;;16.39;65.47
43621;BME280;29213;50.770;7.298;2023-07-31T06:48:42;100335.28;;;16.57;65.71
43621;BME280;29213;50.770;7.298;2023-07-31T06:51:08;100337.72;;;16.65;65.46
43621;BME280;29213;50.770;7.298;2023-07-31T06:53:33;100303.88;;;16.37;65.74
43621;BME280;29213;50.770;7.298;2023-07-31T06:55:58;100297.50;;;16.38;66.10
43621;BME280;29213;50.770;7.298;2023-07-31T06:58:24;100294.81;;;16.38;66.12
43621;BME280;29213;50.770;7.298;2023-07-31T07:00:49;100326.38;;;16.56;65.87
43621;BME280;29213;50.770;7.298;2023-07-31T07:03:18;100330.72;;;16.58;65.99
43621;BME280;29213;50.770;7.298;2023-07-31T07:05:44;100340.22;;;16.67;66.48
43621;BME280;29213;50.770;7.298;2023-07-31T07:08:10;100336.50;;;16.68;66.38
43621;BME280;29213;50.770;7.298;2023-07-31T07:10:35;100330.31;;;16.67;66.55
43621;BME280;29213;50.770;7.298;2023-07-31T07:13:00;100306.75;;;16.56;66.75
43621;BME280;29213;50.770;7.298;2023-07-31T07:15:26;100293.94;;;16.51;67.03
43621;BME280;29213;50.770;7.298;2023-07-31T07:17:51;100326.97;;;16.72;67.12
43621;BME280;29213;50.770;7.298;2023-07-31T07:20:17;100294.78;;;16.52;67.01
43621;BME280;29213;50.770;7.298;2023-07-31T07:22:42;100324.47;;;16.77;67.17
43621;BME280;29213;50.770;7.298;2023-07-31T07:25:10;100298.66;;;16.69;67.23
43621;BME280;29213;50.770;7.298;2023-07-31T07:27:36;100263.97;;;16.48;67.99
43621;BME280;29213;50.770;7.298;2023-07-31T07:30:01;100283.16;;;16.65;68.34
43621;BME280;29213;50.770;7.298;2023-07-31T07:32:27;100253.63;;;16.51;68.09
43621;BME280;29213;50.770;7.298;2023-07-31T07:34:52;100312.03;;;16.90;68.22
43621;BME280;29213;50.770;7.298;2023-07-31T07:37:17;100310.38;;;16.95;68.43
43621;BME280;29213;50.770;7.298;2023-07-31T07:39:43;100293.88;;;16.85;68.47
43621;BME280;29213;50.770;7.298;2023-07-31T07:42:09;100313.47;;;16.99;68.42
43621;BME280;29213;50.770;7.298;2023-07-31T07:44:34;100279.38;;;16.79;68.19
43621;BME280;29213;50.770;7.298;2023-07-31T07:46:59;100304.38;;;16.93;67.10
43621;BME280;29213;50.770;7.298;2023-07-31T07:49:25;100299.63;;;16.95;67.58
43621;BME280;29213;50.770;7.298;2023-07-31T07:51:50;100296.72;;;16.97;67.47
43621;BME280;29213;50.770;7.298;2023-07-31T07:54:16;100326.91;;;17.06;67.67
43621;BME280;29213;50.770;7.298;2023-07-31T07:56:46;100303.56;;;16.93;67.44
43621;BME280;29213;50.770;7.298;2023-07-31T07:59:12;100288.66;;;16.83;67.81
43621;BME280;29213;50.770;7.298;2023-07-31T08:01:37;100313.06;;;16.95;67.62
43621;BME280;29213;50.770;7.298;2023-07-31T08:04:02;100318.63;;;17.01;67.86
43621;BME280;29213;50.770;7.298;2023-07-31T08:06:28;100284.34;;;16.76;67.50
43621;BME280;29213;50.770;7.298;2023-07-31T08:08:55;100321.31;;;17.01;67.63
43621;BME280;29213;50.770;7.298;2023-07-31T08:11:20;100271.56;;;16.71;67.99
43621;BME280;29213;50.770;7.298;2023-07-31T08:13:47;100325.66;;;17.02;67.93
43621;BME280;29213;50.770;7.298;2023-07-31T08:16:12;100322.19;;;16.94;68.02
43621;BME280;29213;50.770;7.298;2023-07-31T08:18:37;100264.97;;;16.60;68.12
43621;BME280;29213;50.770;7.298;2023-07-31T08:21:03;100301.50;;;16.81;68.28
43621;BME280;29213;50.770;7.298;2023-07-31T08:23:28;100277.34;;;16.68;68.14
43621;BME280;29213;50.770;7.298;2023-07-31T08:25:54;100289.53;;;16.77;67.79
43621;BME280;29213;50.770;7.298;2023-07-31T08:28:19;100330.22;;;17.01;67.98
43621;BME280;29213;50.770;7.298;2023-07-31T08:30:45;100301.31;;;16.83;68.09
43621;BME280;29213;50.770;7.298;2023-07-31T08:33:10;100268.25;;;16.69;67.92
43621;BME280;29213;50.770;7.298;2023-07-31T08:35:36;100321.72;;;17.04;68.23
43621;BME280;29213;50.770;7.298;2023-07-31T08:38:01;100290.53;;;16.83;68.21
43621;BME280;29213;50.770;7.298;2023-07-31T08:40:27;100281.22;;;16.86;68.39
43621;BME280;29213;50.770;7.298;2023-07-31T08:42:54;100304.53;;;17.05;68.44
43621;BME280;29213;50.770;7.298;2023-07-31T08:45:22;100296.84;;;17.09;68.41
43621;BME280;29213;50.770;7.298;2023-07-31T08:47:51;100278.50;;;16.99;68.28
43621;BME280;29213;50.770;7.298;2023-07-31T08:50:19;100266.31;;;16.90;68.14
43621;BME280;29213;50.770;7.298;2023-07-31T08:52:46;100280.94;;;17.07;68.28
43621;BME280;29213;50.770;7.298;2023-07-31T08:55:12;100248.53;;;16.82;68.29
43621;BME280;29213;50.770;7.298;2023-07-31T08:57:38;100262.81;;;16.89;68.43
43621;BME280;29213;50.770;7.298;2023-07-31T09:00:05;100271.88;;;16.95;68.12
43621;BME280;29213;50.770;7.298;2023-07-31T09:02:36;100276.47;;;16.94;67.88
43621;BME280;29213;50.770;7.298;2023-07-31T09:05:03;100274.19;;;16.91;68.17
43621;BME280;29213;50.770;7.298;2023-07-31T09:07:31;100271.91;;;16.88;68.54
43621;BME280;29213;50.770;7.298;2023-07-31T09:09:57;100273.59;;;16.89;68.43
43621;BME280;29213;50.770;7.298;2023-07-31T09:12:22;100279.78;;;16.90;68.80
43621;BME280;29213;50.770;7.298;2023-07-31T09:14:48;100277.06;;;16.90;68.81
43621;BME280;29213;50.770;7.298;2023-07-31T09:17:13;100283.09;;;16.92;68.95
43621;BME280;29213;50.770;7.298;2023-07-31T09:19:39;100222.00;;;16.53;68.98
43621;BME280;29213;50.770;7.298;2023-07-31T09:22:05;100285.78;;;16.92;69.26
43621;BME280;29213;50.770;7.298;2023-07-31T09:24:33;100284.94;;;16.91;69.21
43621;BME280;29213;50.770;7.298;2023-07-31T09:27:00;100264.47;;;16.77;69.26
43621;BME280;29213;50.770;7.298;2023-07-31T09:29:29;100271.31;;;16.86;69.16
43621;BME280;29213;50.770;7.298;2023-07-31T09:31:55;100256.84;;;16.74;69.35
43621;BME280;29213;50.770;7.298;2023-07-31T09:34:37;100284.09;;;16.91;69.47
43621;BME280;29213;50.770;7.298;2023-07-31T09:37:06;100288.69;;;16.90;69.35
43621;BME280;29213;50.770;7.298;2023-07-31T09:39:31;100252.13;;;16.69;69.14
43621;BME280;29213;50.770;7.298;2023-07-31T09:41:57;100277.72;;;16.85;69.65
43621;BME280;29213;50.770;7.298;2023-07-31T09:44:40;100262.81;;;16.82;69.47
43621;BME280;29213;50.770;7.298;2023-07-31T09:47:06;100231.03;;;16.66;69.35
43621;BME280;29213;50.770;7.298;2023-07-31T09:49:31;100243.81;;;16.70;69.74
43621;BME280;29213;50.770;7.298;2023-07-31T09:51:57;100265.72;;;16.88;69.62
43621;BME280;29213;50.770;7.298;2023-07-31T09:54:22;100222.97;;;16.66;69.65
43621;BME280;29213;50.770;7.298;2023-07-31T09:56:48;100257.66;;;16.88;69.53
43621;BME280;29213;50.770;7.298;2023-07-31T09:59:18;100248.75;;;16.87;69.83
43621;BME280;29213;50.770;7.298;2023-07-31T10:01:45;100249.59;;;16.88;69.88
43621;BME280;29213;50.770;7.298;2023-07-31T10:04:12;100244.22;;;16.88;69.80
43621;BME280;29213;50.770;7.298;2023-07-31T10:06:38;100243.38;;;16.87;70.13
43621;BME280;29213;50.770;7.298;2023-07-31T10:09:07;100249.59;;;16.88;69.88
43621;BME280;29213;50.770;7.298;2023-07-31T10:11:42;100230.53;;;16.82;70.18
43621;BME280;29213;50.770;7.298;2023-07-31T10:14:10;100234.25;;;16.88;70.19
43621;BME280;29213;50.770;7.298;2023-07-31T10:16:38;100165.56;;;16.47;70.22
43621;BME280;29213;50.770;7.298;2023-07-31T10:19:05;100224.75;;;16.86;70.43
43621;BME280;29213;50.770;7.298;2023-07-31T10:21:31;100190.50;;;16.67;70.26
43621;BME280;29213;50.770;7.298;2023-07-31T10:24:03;100195.22;;;16.72;70.33
43621;BME280;29213;50.770;7.298;2023-07-31T10:26:29;100178.94;;;16.60;70.47
43621;BME280;29213;50.770;7.298;2023-07-31T10:28:56;100172.53;;;16.61;70.68
43621;BME280;29213;50.770;7.298;2023-07-31T10:31:23;100192.94;;;16.76;70.38
43621;BME280;29213;50.770;7.298;2023-07-31T10:33:50;100224.31;;;16.95;70.74
43621;BME280;29213;50.770;7.298;2023-07-31T10:36:20;100219.31;;;16.99;70.53
43621;BME280;29213;50.770;7.298;2023-07-31T10:38:48;100215.78;;;16.99;70.86
43621;BME280;29213;50.770;7.298;2023-07-31T10:41:14;100218.06;;;17.02;70.38
43621;BME280;29213;50.770;7.298;2023-07-31T10:43:39;100205.03;;;16.99;70.40
43621;BME280;29213;50.770;7.298;2023-07-31T10:46:08;100161.03;;;16.79;70.50
43621;BME280;29213;50.770;7.298;2023-07-31T10:48:38;100209.09;;;17.15;70.37
43621;BME280;29213;50.770;7.298;2023-07-31T10:51:09;100187.44;;;17.03;70.06
43621;BME280;29213;50.770;7.298;2023-07-31T10:53:36;100164.69;;;16.99;70.33
43621;BME280;29213;50.770;7.298;2023-07-31T10:56:03;100196.97;;;17.31;70.26
43621;BME280;29213;50.770;7.298;2023-07-31T10:58:29;100201.25;;;17.39;69.57
43621;BME280;29213;50.770;7.298;2023-07-31T11:00:58;100208.25;;;17.46;69.51
43621;BME280;29213;50.770;7.298;2023-07-31T11:03:40;100199.31;;;17.46;69.06
43621;BME280;29213;50.770;7.298;2023-07-31T11:06:07;100182.63;;;17.37;69.23
43621;BME280;29213;50.770;7.298;2023-07-31T11:08:35;100207.53;;;17.58;69.06
43621;BME280;29213;50.770;7.298;2023-07-31T11:11:08;100200.03;;;17.60;69.28
43621;BME280;29213;50.770;7.298;2023-07-31T11:13:44;100205.41;;;17.60;69.28
43621;BME280;29213;50.770;7.298;2023-07-31T11:16:12;100198.84;;;17.56;68.99
43621;BME280;29213;50.770;7.298;2023-07-31T11:18:40;100203.56;;;17.60;68.74
43621;BME280;29213;50.770;7.298;2023-07-31T11:21:06;100167.53;;;17.36;69.00
43621;BME280;29213;50.770;7.298;2023-07-31T11:23:32;100166.47;;;17.37;68.93
43621;BME280;29213;50.770;7.298;2023-07-31T11:26:00;100193.69;;;17.54;69.04
43621;BME280;29213;50.770;7.298;2023-07-31T11:28:31;100174.13;;;17.40;69.22
43621;BME280;29213;50.770;7.298;2023-07-31T11:30:57;100197.00;;;17.49;68.12
43621;BME280;29213;50.770;7.298;2023-07-31T11:33:23;100157.53;;;17.18;67.91
43621;BME280;29213;50.770;7.298;2023-07-31T11:35:48;100162.84;;;17.25;67.58
43621;BME280;29213;50.770;7.298;2023-07-31T11:38:29;100157.91;;;17.21;67.60
43621;BME280;29213;50.770;7.298;2023-07-31T11:40:57;100193.13;;;17.45;67.74
43621;BME280;29213;50.770;7.298;2023-07-31T11:43:23;100165.25;;;17.33;66.95
43621;BME280;29213;50.770;7.298;2023-07-31T11:45:51;100212.44;;;17.61;66.30
43621;BME280;29213;50.770;7.298;2023-07-31T11:50:48;100202.13;;;17.58;66.05
43621;BME280;29213;50.770;7.298;2023-07-31T11:53:15;100215.56;;;17.65;66.37
43621;BME280;29213;50.770;7.298;2023-07-31T11:55:42;100207.56;;;17.51;65.60
43621;BME280;29213;50.770;7.298;2023-07-31T11:58:08;100202.34;;;17.56;66.18
43621;BME280;29213;50.770;7.298;2023-07-31T12:00:33;100158.16;;;17.45;67.16
43621;BME280;29213;50.770;7.298;2023-07-31T12:02:59;100137.63;;;17.44;67.93
43621;BME280;29213;50.770;7.298;2023-07-31T12:05:25;100113.41;;;17.44;69.13
43621;BME280;29213;50.770;7.298;2023-07-31T12:07:52;100163.47;;;17.96;69.81
43621;BME280;29213;50.770;7.298;2023-07-31T12:10:25;100109.16;;;17.81;70.12
43621;BME280;29213;50.770;7.298;2023-07-31T12:13:09;100176.63;;;18.42;70.20
43621;BME280;29213;50.770;7.298;2023-07-31T12:15:40;100175.69;;;18.55;68.63
43621;BME280;29213;50.770;7.298;2023-07-31T12:18:09;100151.41;;;18.55;67.69
43621;BME280;29213;50.770;7.298;2023-07-31T12:20:35;100132.44;;;18.62;67.32
43621;BME280;29213;50.770;7.298;2023-07-31T12:23:01;100140.25;;;18.82;66.63
43621;BME280;29213;50.770;7.298;2023-07-31T12:25:31;100158.22;;;19.00;66.93
43621;BME280;29213;50.770;7.298;2023-07-31T12:27:57;100139.22;;;18.95;66.27
43621;BME280;29213;50.770;7.298;2023-07-31T12:32:52;100149.34;;;19.12;65.54
43621;BME280;29213;50.770;7.298;2023-07-31T12:35:18;100151.31;;;19.04;65.21
43621;BME280;29213;50.770;7.298;2023-07-31T12:37:43;100154.59;;;19.06;64.71
43621;BME280;29213;50.770;7.298;2023-07-31T12:40:09;100134.75;;;18.89;64.14
43621;BME280;29213;50.770;7.298;2023-07-31T12:42:35;100098.56;;;18.66;65.00
43621;BME280;29213;50.770;7.298;2023-07-31T12:45:00;100132.53;;;18.86;64.38
43621;BME280;29213;50.770;7.298;2023-07-31T12:47:25;100130.97;;;18.78;65.09
43621;BME280;29213;50.770;7.298;2023-07-31T12:49:51;100148.84;;;18.91;65.12
43621;BME280;29213;50.770;7.298;2023-07-31T12:52:16;100130.97;;;18.78;64.72
43621;BME280;29213;50.770;7.298;2023-07-31T12:54:41;100127.56;;;18.71;64.66